sensor_id;sensor_type;location;lat;lon;timestamp;temperature;humidity
16511;DHT22;8368;48.772;8.754;2024-02-21T00:00:10;4.60;99.90
16511;DHT22;8368;48.772;8.754;2024-02-21T00:02:37;4.60;99.90
16511;DHT22;8368;48.772;8.754;2024-02-21T00:05:02;4.60;99.90
16511;DHT22;8368;48.772;8.754;2024-02-21T00:07:28;4.60;99.90
16511;DHT22;8368;48.772;8.754;2024-02-21T00:09:53;4.70;99.90
16511;DHT22;8368;48.772;8.754;2024-02-21T00:12:19;4.70;99.90
16511;DHT22;8368;48.772;8.754;2024-02-21T00:14:45;4.70;99.90
16511;DHT22;8368;48.772;8.754;2024-02-21T00:17:10;4.70;99.90
16511;DHT22;8368;48.772;8.754;2024-02-21T00:19:36;4.70;99.90
16511;DHT22;8368;48.772;8.754;2024-02-21T00:22:01;4.70;99.90
16511;DHT22;8368;48.772;8.754;2024-02-21T00:24:27;4.70;99.90
16511;DHT22;8368;48.772;8.754;2024-02-21T00:26:53;4.60;99.90
16511;DHT22;8368;48.772;8.754;2024-02-21T00:29:19;4.70;99.90
16511;DHT22;8368;48.772;8.754;2024-02-21T00:31:44;4.60;99.90
16511;DHT22;8368;48.772;8.754;2024-02-21T00:34:10;4.60;99.90
16511;DHT22;8368;48.772;8.754;2024-02-21T00:36:37;4.60;99.90
16511;DHT22;8368;48.772;8.754;2024-02-21T00:39:03;4.70;99.90
16511;DHT22;8368;48.772;8.754;2024-02-21T00:41:29;4.60;99.90
16511;DHT22;8368;48.772;8.754;2024-02-21T00:43:55;4.70;99.90
16511;DHT22;8368;48.772;8.754;2024-02-21T00:46:20;4.70;99.90
16511;DHT22;8368;48.772;8.754;2024-02-21T00:48:46;4.70;99.90
16511;DHT22;8368;48.772;8.754;2024-02-21T00:51:11;4.60;99.90
16511;DHT22;8368;48.772;8.754;2024-02-21T00:53:37;4.60;99.90
16511;DHT22;8368;48.772;8.754;2024-02-21T00:56:05;4.70;99.90
16511;DHT22;8368;48.772;8.754;2024-02-21T00:58:30;4.60;99.90
16511;DHT22;8368;48.772;8.754;2024-02-21T01:00:56;4.60;99.90
16511;DHT22;8368;48.772;8.754;2024-02-21T01:03:21;4.70;99.90
16511;DHT22;8368;48.772;8.754;2024-02-21T01:05:47;4.60;99.90
16511;DHT22;8368;48.772;8.754;2024-02-21T01:08:12;4.60;99.90
16511;DHT22;8368;48.772;8.754;2024-02-21T01:10:38;4.60;99.90
16511;DHT22;8368;48.772;8.754;2024-02-21T01:13:03;4.60;99.90
16511;DHT22;8368;48.772;8.754;2024-02-21T01:15:29;4.60;99.90
16511;DHT22;8368;48.772;8.754;2024-02-21T01:17:54;4.60;99.90
16511;DHT22;8368;48.772;8.754;2024-02-21T01:20:21;4.60;99.90
16511;DHT22;8368;48.772;8.754;2024-02-21T01:22:46;4.60;99.90
16511;DHT22;8368;48.772;8.754;2024-02-21T01:25:12;4.60;99.90
16511;DHT22;8368;48.772;8.754;2024-02-21T01:27:38;4.60;99.90
16511;DHT22;8368;48.772;8.754;2024-02-21T01:30:04;4.60;99.90
16511;DHT22;8368;48.772;8.754;2024-02-21T01:32:31;4.60;99.90
16511;DHT22;8368;48.772;8.754;2024-02-21T01:34:56;4.60;99.90
16511;DHT22;8368;48.772;8.754;2024-02-21T01:37:22;4.60;99.90
16511;DHT22;8368;48.772;8.754;2024-02-21T01:39:47;4.60;99.90
16511;DHT22;8368;48.772;8.754;2024-02-21T01:42:14;4.60;99.90
16511;DHT22;8368;48.772;8.754;2024-02-21T01:44:40;4.60;99.90
16511;DHT22;8368;48.772;8.754;2024-02-21T01:47:07;4.60;99.90
16511;DHT22;8368;48.772;8.754;2024-02-21T01:49:33;4.60;99.90
16511;DHT22;8368;48.772;8.754;2024-02-21T01:51:59;4.50;99.90
16511;DHT22;8368;48.772;8.754;2024-02-21T01:54:25;4.50;99.90
16511;DHT22;8368;48.772;8.754;2024-02-21T01:56:54;4.50;99.90
16511;DHT22;8368;48.772;8.754;2024-02-21T01:59:19;4.60;99.90
16511;DHT22;8368;48.772;8.754;2024-02-21T02:01:46;4.50;99.90
16511;DHT22;8368;48.772;8.754;2024-02-21T02:04:12;4.50;99.90
16511;DHT22;8368;48.772;8.754;2024-02-21T02:06:39;4.60;99.90
16511;DHT22;8368;48.772;8.754;2024-02-21T02:09:05;4.60;99.90
16511;DHT22;8368;48.772;8.754;2024-02-21T02:11:32;4.60;99.90
16511;DHT22;8368;48.772;8.754;2024-02-21T02:13:57;4.60;99.90
16511;DHT22;8368;48.772;8.754;2024-02-21T02:16:23;4.60;99.90
16511;DHT22;8368;48.772;8.754;2024-02-21T02:18:48;4.70;99.90
16511;DHT22;8368;48.772;8.754;2024-02-21T02:21:29;4.70;99.90
16511;DHT22;8368;48.772;8.754;2024-02-21T02:23:56;4.70;99.90
16511;DHT22;8368;48.772;8.754;2024-02-21T02:26:21;4.70;99.90
16511;DHT22;8368;48.772;8.754;2024-02-21T02:28:47;4.70;99.90
16511;DHT22;8368;48.772;8.754;2024-02-21T02:31:12;4.70;99.90
16511;DHT22;8368;48.772;8.754;2024-02-21T02:33:38;4.70;99.90
16511;DHT22;8368;48.772;8.754;2024-02-21T02:36:04;4.70;99.90
16511;DHT22;8368;48.772;8.754;2024-02-21T02:38:29;4.70;99.90
16511;DHT22;8368;48.772;8.754;2024-02-21T02:40:55;4.70;99.90
16511;DHT22;8368;48.772;8.754;2024-02-21T02:43:20;4.70;99.90
16511;DHT22;8368;48.772;8.754;2024-02-21T02:45:46;4.60;99.90
16511;DHT22;8368;48.772;8.754;2024-02-21T02:48:11;4.60;99.90
16511;DHT22;8368;48.772;8.754;2024-02-21T02:50:37;4.60;99.90
16511;DHT22;8368;48.772;8.754;2024-02-21T02:53:02;4.60;99.90
16511;DHT22;8368;48.772;8.754;2024-02-21T02:55:28;4.60;99.90
16511;DHT22;8368;48.772;8.754;2024-02-21T02:57:54;4.50;99.90
16511;DHT22;8368;48.772;8.754;2024-02-21T03:00:20;4.60;99.90
16511;DHT22;8368;48.772;8.754;2024-02-21T03:02:48;4.50;99.90
16511;DHT22;8368;48.772;8.754;2024-02-21T03:05:19;4.60;99.90
16511;DHT22;8368;48.772;8.754;2024-02-21T03:07:45;4.50;99.90
16511;DHT22;8368;48.772;8.754;2024-02-21T03:10:11;4.50;99.90
16511;DHT22;8368;48.772;8.754;2024-02-21T03:12:37;4.50;99.90
16511;DHT22;8368;48.772;8.754;2024-02-21T03:15:03;4.50;99.90
16511;DHT22;8368;48.772;8.754;2024-02-21T03:17:30;4.60;99.90
16511;DHT22;8368;48.772;8.754;2024-02-21T03:19:55;4.50;99.90
16511;DHT22;8368;48.772;8.754;2024-02-21T03:22:21;4.50;99.90
16511;DHT22;8368;48.772;8.754;2024-02-21T03:24:47;4.50;99.90
16511;DHT22;8368;48.772;8.754;2024-02-21T03:27:13;4.40;99.90
16511;DHT22;8368;48.772;8.754;2024-02-21T03:29:39;4.40;99.90
16511;DHT22;8368;48.772;8.754;2024-02-21T03:32:04;4.40;99.90
16511;DHT22;8368;48.772;8.754;2024-02-21T03:34:30;4.30;99.90
16511;DHT22;8368;48.772;8.754;2024-02-21T03:36:55;4.40;99.90
16511;DHT22;8368;48.772;8.754;2024-02-21T03:39:21;4.30;99.90
16511;DHT22;8368;48.772;8.754;2024-02-21T03:41:47;4.30;99.90
16511;DHT22;8368;48.772;8.754;2024-02-21T03:44:12;4.30;99.90
16511;DHT22;8368;48.772;8.754;2024-02-21T03:46:38;4.20;99.90
16511;DHT22;8368;48.772;8.754;2024-02-21T03:49:03;4.20;99.90
16511;DHT22;8368;48.772;8.754;2024-02-21T03:51:29;4.10;99.90
16511;DHT22;8368;48.772;8.754;2024-02-21T03:53:54;4.10;99.90
16511;DHT22;8368;48.772;8.754;2024-02-21T03:56:20;4.00;99.90
16511;DHT22;8368;48.772;8.754;2024-02-21T03:58:45;4.00;99.90
16511;DHT22;8368;48.772;8.754;2024-02-21T04:01:11;4.00;99.90
16511;DHT22;8368;48.772;8.754;2024-02-21T04:03:37;4.00;99.90
16511;DHT22;8368;48.772;8.754;2024-02-21T04:06:03;4.00;99.90
16511;DHT22;8368;48.772;8.754;2024-02-21T04:08:29;3.90;99.90
16511;DHT22;8368;48.772;8.754;2024-02-21T04:10:54;3.90;99.90
16511;DHT22;8368;48.772;8.754;2024-02-21T04:13:20;3.90;99.90
16511;DHT22;8368;48.772;8.754;2024-02-21T04:15:45;3.90;99.90
16511;DHT22;8368;48.772;8.754;2024-02-21T04:18:11;3.90;99.90
16511;DHT22;8368;48.772;8.754;2024-02-21T04:20:36;3.90;99.90
16511;DHT22;8368;48.772;8.754;2024-02-21T04:23:02;4.00;99.90
16511;DHT22;8368;48.772;8.754;2024-02-21T04:25:27;4.00;99.90
16511;DHT22;8368;48.772;8.754;2024-02-21T04:27:53;4.00;99.90
16511;DHT22;8368;48.772;8.754;2024-02-21T04:30:18;4.00;99.90
16511;DHT22;8368;48.772;8.754;2024-02-21T04:32:44;4.00;99.90
16511;DHT22;8368;48.772;8.754;2024-02-21T04:35:09;4.00;99.90
16511;DHT22;8368;48.772;8.754;2024-02-21T04:37:35;4.00;99.90
16511;DHT22;8368;48.772;8.754;2024-02-21T04:40:01;3.90;99.90
16511;DHT22;8368;48.772;8.754;2024-02-21T04:42:26;3.90;99.90
16511;DHT22;8368;48.772;8.754;2024-02-21T04:44:52;3.90;99.90
16511;DHT22;8368;48.772;8.754;2024-02-21T04:47:18;3.90;99.90
16511;DHT22;8368;48.772;8.754;2024-02-21T04:49:45;3.80;99.90
16511;DHT22;8368;48.772;8.754;2024-02-21T04:52:11;3.80;99.90
16511;DHT22;8368;48.772;8.754;2024-02-21T04:54:36;3.70;99.90
16511;DHT22;8368;48.772;8.754;2024-02-21T04:57:02;3.70;99.90
16511;DHT22;8368;48.772;8.754;2024-02-21T04:59:28;3.60;99.90
16511;DHT22;8368;48.772;8.754;2024-02-21T05:01:53;3.60;99.90
16511;DHT22;8368;48.772;8.754;2024-02-21T05:04:19;3.60;99.90
16511;DHT22;8368;48.772;8.754;2024-02-21T05:06:44;3.50;99.90
16511;DHT22;8368;48.772;8.754;2024-02-21T05:09:10;3.50;99.90
16511;DHT22;8368;48.772;8.754;2024-02-21T05:11:36;3.40;99.90
16511;DHT22;8368;48.772;8.754;2024-02-21T05:14:02;3.40;99.90
16511;DHT22;8368;48.772;8.754;2024-02-21T05:16:29;3.40;99.90
16511;DHT22;8368;48.772;8.754;2024-02-21T05:18:54;3.40;99.90
16511;DHT22;8368;48.772;8.754;2024-02-21T05:21:22;3.50;99.90
16511;DHT22;8368;48.772;8.754;2024-02-21T05:23:49;3.40;99.90
16511;DHT22;8368;48.772;8.754;2024-02-21T05:26:25;3.50;99.90
16511;DHT22;8368;48.772;8.754;2024-02-21T05:28:50;3.40;99.90
16511;DHT22;8368;48.772;8.754;2024-02-21T05:31:18;3.50;99.90
16511;DHT22;8368;48.772;8.754;2024-02-21T05:33:44;3.40;99.90
16511;DHT22;8368;48.772;8.754;2024-02-21T05:36:10;3.50;99.90
16511;DHT22;8368;48.772;8.754;2024-02-21T05:38:36;3.50;99.90
16511;DHT22;8368;48.772;8.754;2024-02-21T05:41:01;3.50;99.90
16511;DHT22;8368;48.772;8.754;2024-02-21T05:43:27;3.50;99.90
16511;DHT22;8368;48.772;8.754;2024-02-21T05:45:53;3.60;99.90
16511;DHT22;8368;48.772;8.754;2024-02-21T05:48:18;3.60;99.90
16511;DHT22;8368;48.772;8.754;2024-02-21T05:50:44;3.60;99.90
16511;DHT22;8368;48.772;8.754;2024-02-21T05:53:09;3.60;99.90
16511;DHT22;8368;48.772;8.754;2024-02-21T05:55:36;3.60;99.90
16511;DHT22;8368;48.772;8.754;2024-02-21T05:58:01;3.60;99.90
16511;DHT22;8368;48.772;8.754;2024-02-21T06:00:28;3.60;99.90
16511;DHT22;8368;48.772;8.754;2024-02-21T06:02:53;3.50;99.90
16511;DHT22;8368;48.772;8.754;2024-02-21T06:05:19;3.50;99.90
16511;DHT22;8368;48.772;8.754;2024-02-21T06:07:44;3.50;99.90
16511;DHT22;8368;48.772;8.754;2024-02-21T06:10:10;3.50;99.90
16511;DHT22;8368;48.772;8.754;2024-02-21T06:12:35;3.40;99.90
16511;DHT22;8368;48.772;8.754;2024-02-21T06:15:01;3.40;99.90
16511;DHT22;8368;48.772;8.754;2024-02-21T06:17:26;3.40;99.90
16511;DHT22;8368;48.772;8.754;2024-02-21T06:19:52;3.40;99.90
16511;DHT22;8368;48.772;8.754;2024-02-21T06:22:17;3.40;99.90
16511;DHT22;8368;48.772;8.754;2024-02-21T06:24:43;3.40;99.90
16511;DHT22;8368;48.772;8.754;2024-02-21T06:27:09;3.40;99.90
16511;DHT22;8368;48.772;8.754;2024-02-21T06:29:35;3.30;99.90
16511;DHT22;8368;48.772;8.754;2024-02-21T06:32:02;3.40;99.90
16511;DHT22;8368;48.772;8.754;2024-02-21T06:34:27;3.40;99.90
16511;DHT22;8368;48.772;8.754;2024-02-21T06:36:53;3.40;99.90
16511;DHT22;8368;48.772;8.754;2024-02-21T06:39:18;3.30;99.90
16511;DHT22;8368;48.772;8.754;2024-02-21T06:41:44;3.30;99.90
16511;DHT22;8368;48.772;8.754;2024-02-21T06:44:10;3.30;99.90
16511;DHT22;8368;48.772;8.754;2024-02-21T06:46:35;3.30;99.90
16511;DHT22;8368;48.772;8.754;2024-02-21T06:49:02;3.30;99.90
16511;DHT22;8368;48.772;8.754;2024-02-21T06:51:29;3.30;99.90
16511;DHT22;8368;48.772;8.754;2024-02-21T06:53:54;3.30;99.90
16511;DHT22;8368;48.772;8.754;2024-02-21T06:56:22;3.30;99.90
16511;DHT22;8368;48.772;8.754;2024-02-21T06:58:52;3.30;99.90
16511;DHT22;8368;48.772;8.754;2024-02-21T07:01:17;3.40;99.90
16511;DHT22;8368;48.772;8.754;2024-02-21T07:03:43;3.40;99.90
16511;DHT22;8368;48.772;8.754;2024-02-21T07:06:08;3.40;99.90
16511;DHT22;8368;48.772;8.754;2024-02-21T07:08:34;3.40;99.90
16511;DHT22;8368;48.772;8.754;2024-02-21T07:10:59;3.40;99.90
16511;DHT22;8368;48.772;8.754;2024-02-21T07:13:25;3.50;99.90
16511;DHT22;8368;48.772;8.754;2024-02-21T07:15:50;3.50;99.90
16511;DHT22;8368;48.772;8.754;2024-02-21T07:18:16;3.50;99.90
16511;DHT22;8368;48.772;8.754;2024-02-21T07:20:42;3.60;99.90
16511;DHT22;8368;48.772;8.754;2024-02-21T07:23:08;3.70;99.90
16511;DHT22;8368;48.772;8.754;2024-02-21T07:25:34;3.70;99.90
16511;DHT22;8368;48.772;8.754;2024-02-21T07:27:59;3.80;99.90
16511;DHT22;8368;48.772;8.754;2024-02-21T07:30:25;3.90;99.90
16511;DHT22;8368;48.772;8.754;2024-02-21T07:32:51;4.00;99.90
16511;DHT22;8368;48.772;8.754;2024-02-21T07:35:17;4.10;99.90
16511;DHT22;8368;48.772;8.754;2024-02-21T07:37:43;4.20;99.90
16511;DHT22;8368;48.772;8.754;2024-02-21T07:40:16;4.30;99.90
16511;DHT22;8368;48.772;8.754;2024-02-21T07:42:42;4.40;99.90
16511;DHT22;8368;48.772;8.754;2024-02-21T07:45:08;4.50;99.90
16511;DHT22;8368;48.772;8.754;2024-02-21T07:47:34;4.60;99.90
16511;DHT22;8368;48.772;8.754;2024-02-21T07:50:00;4.70;99.90
16511;DHT22;8368;48.772;8.754;2024-02-21T07:52:26;4.70;99.90
16511;DHT22;8368;48.772;8.754;2024-02-21T07:54:51;4.70;99.90
16511;DHT22;8368;48.772;8.754;2024-02-21T07:57:17;4.80;99.90
16511;DHT22;8368;48.772;8.754;2024-02-21T07:59:42;4.80;99.90
16511;DHT22;8368;48.772;8.754;2024-02-21T08:02:08;4.80;99.90
16511;DHT22;8368;48.772;8.754;2024-02-21T08:04:34;4.90;99.90
16511;DHT22;8368;48.772;8.754;2024-02-21T08:06:59;5.00;99.90
16511;DHT22;8368;48.772;8.754;2024-02-21T08:09:28;5.00;99.90
16511;DHT22;8368;48.772;8.754;2024-02-21T08:11:54;5.10;99.90
16511;DHT22;8368;48.772;8.754;2024-02-21T08:14:20;5.10;99.90
16511;DHT22;8368;48.772;8.754;2024-02-21T08:16:45;5.20;99.90
16511;DHT22;8368;48.772;8.754;2024-02-21T08:19:11;5.30;99.90
16511;DHT22;8368;48.772;8.754;2024-02-21T08:21:37;5.40;99.90
16511;DHT22;8368;48.772;8.754;2024-02-21T08:24:02;5.40;99.90
16511;DHT22;8368;48.772;8.754;2024-02-21T08:26:28;5.50;99.90
16511;DHT22;8368;48.772;8.754;2024-02-21T08:28:56;5.70;99.90
16511;DHT22;8368;48.772;8.754;2024-02-21T08:31:24;5.70;99.90
16511;DHT22;8368;48.772;8.754;2024-02-21T08:33:53;5.80;99.90
16511;DHT22;8368;48.772;8.754;2024-02-21T08:36:19;5.80;99.90
16511;DHT22;8368;48.772;8.754;2024-02-21T08:38:45;5.90;99.90
16511;DHT22;8368;48.772;8.754;2024-02-21T08:41:11;6.00;99.90
16511;DHT22;8368;48.772;8.754;2024-02-21T08:43:37;6.10;99.90
16511;DHT22;8368;48.772;8.754;2024-02-21T08:46:03;6.10;99.90
16511;DHT22;8368;48.772;8.754;2024-02-21T08:48:29;6.20;99.90
16511;DHT22;8368;48.772;8.754;2024-02-21T08:50:54;6.30;99.90
16511;DHT22;8368;48.772;8.754;2024-02-21T08:53:20;6.30;99.90
16511;DHT22;8368;48.772;8.754;2024-02-21T08:55:46;6.30;99.90
16511;DHT22;8368;48.772;8.754;2024-02-21T08:58:11;6.40;99.90
16511;DHT22;8368;48.772;8.754;2024-02-21T09:00:37;6.50;99.90
16511;DHT22;8368;48.772;8.754;2024-02-21T09:03:03;6.40;99.90
16511;DHT22;8368;48.772;8.754;2024-02-21T09:05:29;6.40;99.90
16511;DHT22;8368;48.772;8.754;2024-02-21T09:07:54;6.50;99.90
16511;DHT22;8368;48.772;8.754;2024-02-21T09:10:20;6.50;99.90
16511;DHT22;8368;48.772;8.754;2024-02-21T09:12:46;6.50;99.90
16511;DHT22;8368;48.772;8.754;2024-02-21T09:15:13;6.50;99.90
16511;DHT22;8368;48.772;8.754;2024-02-21T09:17:38;6.50;99.90
16511;DHT22;8368;48.772;8.754;2024-02-21T09:20:05;6.50;99.90
16511;DHT22;8368;48.772;8.754;2024-02-21T09:22:31;6.60;99.90
16511;DHT22;8368;48.772;8.754;2024-02-21T09:25:00;6.60;99.90
16511;DHT22;8368;48.772;8.754;2024-02-21T09:27:25;6.70;99.90
16511;DHT22;8368;48.772;8.754;2024-02-21T09:29:51;6.80;99.90
16511;DHT22;8368;48.772;8.754;2024-02-21T09:32:18;6.80;99.90
16511;DHT22;8368;48.772;8.754;2024-02-21T09:34:44;6.90;99.90
16511;DHT22;8368;48.772;8.754;2024-02-21T09:37:10;6.90;99.90
16511;DHT22;8368;48.772;8.754;2024-02-21T09:39:36;7.00;99.90
16511;DHT22;8368;48.772;8.754;2024-02-21T09:42:05;7.00;99.90
16511;DHT22;8368;48.772;8.754;2024-02-21T09:44:36;7.10;99.90
16511;DHT22;8368;48.772;8.754;2024-02-21T09:47:03;7.30;99.90
16511;DHT22;8368;48.772;8.754;2024-02-21T09:49:33;7.40;99.90
16511;DHT22;8368;48.772;8.754;2024-02-21T09:52:02;7.40;99.90
16511;DHT22;8368;48.772;8.754;2024-02-21T09:54:29;7.40;99.90
16511;DHT22;8368;48.772;8.754;2024-02-21T09:56:59;7.50;99.90
16511;DHT22;8368;48.772;8.754;2024-02-21T09:59:24;7.60;99.90
16511;DHT22;8368;48.772;8.754;2024-02-21T10:01:52;7.70;99.90
16511;DHT22;8368;48.772;8.754;2024-02-21T10:04:20;7.90;99.90
16511;DHT22;8368;48.772;8.754;2024-02-21T10:06:46;8.00;99.90
16511;DHT22;8368;48.772;8.754;2024-02-21T10:09:29;8.00;99.90
16511;DHT22;8368;48.772;8.754;2024-02-21T10:12:15;8.10;99.90
16511;DHT22;8368;48.772;8.754;2024-02-21T10:14:44;8.20;99.90
16511;DHT22;8368;48.772;8.754;2024-02-21T10:17:16;8.30;99.90
16511;DHT22;8368;48.772;8.754;2024-02-21T10:19:43;8.40;99.90
16511;DHT22;8368;48.772;8.754;2024-02-21T10:22:09;8.50;99.90
16511;DHT22;8368;48.772;8.754;2024-02-21T10:24:35;8.60;99.90
16511;DHT22;8368;48.772;8.754;2024-02-21T10:27:04;8.70;99.90
16511;DHT22;8368;48.772;8.754;2024-02-21T10:29:31;8.80;99.90
16511;DHT22;8368;48.772;8.754;2024-02-21T10:32:10;8.90;99.90
16511;DHT22;8368;48.772;8.754;2024-02-21T10:34:38;9.00;99.90
16511;DHT22;8368;48.772;8.754;2024-02-21T10:37:05;9.10;99.90
16511;DHT22;8368;48.772;8.754;2024-02-21T10:39:36;9.20;99.90
16511;DHT22;8368;48.772;8.754;2024-02-21T10:42:02;9.30;99.90
16511;DHT22;8368;48.772;8.754;2024-02-21T10:44:33;9.30;99.90
16511;DHT22;8368;48.772;8.754;2024-02-21T10:46:59;9.30;99.90
16511;DHT22;8368;48.772;8.754;2024-02-21T10:49:26;9.50;99.90
16511;DHT22;8368;48.772;8.754;2024-02-21T10:52:27;9.50;99.90
16511;DHT22;8368;48.772;8.754;2024-02-21T10:54:55;9.50;99.90
16511;DHT22;8368;48.772;8.754;2024-02-21T10:57:22;9.60;99.90
16511;DHT22;8368;48.772;8.754;2024-02-21T10:59:48;9.60;99.90
16511;DHT22;8368;48.772;8.754;2024-02-21T11:02:15;9.70;99.90
16511;DHT22;8368;48.772;8.754;2024-02-21T11:04:41;9.70;99.90
16511;DHT22;8368;48.772;8.754;2024-02-21T11:07:07;9.70;99.90
16511;DHT22;8368;48.772;8.754;2024-02-21T11:09:33;9.80;99.90
16511;DHT22;8368;48.772;8.754;2024-02-21T11:12:03;9.90;99.90
16511;DHT22;8368;48.772;8.754;2024-02-21T11:14:30;10.00;99.90
16511;DHT22;8368;48.772;8.754;2024-02-21T11:16:58;10.10;99.90
16511;DHT22;8368;48.772;8.754;2024-02-21T11:19:28;10.10;99.90
16511;DHT22;8368;48.772;8.754;2024-02-21T11:21:55;10.10;99.90
16511;DHT22;8368;48.772;8.754;2024-02-21T11:24:26;10.10;99.90
16511;DHT22;8368;48.772;8.754;2024-02-21T11:26:54;10.10;99.90
16511;DHT22;8368;48.772;8.754;2024-02-21T11:29:26;10.20;99.90
16511;DHT22;8368;48.772;8.754;2024-02-21T11:31:52;10.20;99.90
16511;DHT22;8368;48.772;8.754;2024-02-21T11:34:18;10.30;99.90
16511;DHT22;8368;48.772;8.754;2024-02-21T11:36:52;10.50;99.90
16511;DHT22;8368;48.772;8.754;2024-02-21T11:39:19;10.50;99.90
16511;DHT22;8368;48.772;8.754;2024-02-21T11:41:46;10.60;99.90
16511;DHT22;8368;48.772;8.754;2024-02-21T11:44:12;10.60;99.90
16511;DHT22;8368;48.772;8.754;2024-02-21T11:46:38;10.80;99.90
16511;DHT22;8368;48.772;8.754;2024-02-21T11:49:03;10.80;99.90
16511;DHT22;8368;48.772;8.754;2024-02-21T11:51:29;10.90;99.90
16511;DHT22;8368;48.772;8.754;2024-02-21T11:53:54;11.00;99.90
16511;DHT22;8368;48.772;8.754;2024-02-21T11:56:20;11.10;99.90
16511;DHT22;8368;48.772;8.754;2024-02-21T11:58:49;11.10;99.90
16511;DHT22;8368;48.772;8.754;2024-02-21T12:01:15;11.20;99.90
16511;DHT22;8368;48.772;8.754;2024-02-21T12:03:42;11.20;99.90
16511;DHT22;8368;48.772;8.754;2024-02-21T12:06:11;11.30;99.90
16511;DHT22;8368;48.772;8.754;2024-02-21T12:08:43;11.30;99.90
16511;DHT22;8368;48.772;8.754;2024-02-21T12:11:20;11.40;99.90
16511;DHT22;8368;48.772;8.754;2024-02-21T12:13:46;11.50;99.90
16511;DHT22;8368;48.772;8.754;2024-02-21T12:16:15;11.60;99.90
16511;DHT22;8368;48.772;8.754;2024-02-21T12:18:41;11.50;99.90
16511;DHT22;8368;48.772;8.754;2024-02-21T12:21:07;11.50;99.90
16511;DHT22;8368;48.772;8.754;2024-02-21T12:23:33;11.50;99.90
16511;DHT22;8368;48.772;8.754;2024-02-21T12:25:59;11.60;99.90
16511;DHT22;8368;48.772;8.754;2024-02-21T12:28:25;11.60;99.90
16511;DHT22;8368;48.772;8.754;2024-02-21T12:30:51;11.70;99.90
16511;DHT22;8368;48.772;8.754;2024-02-21T12:33:18;11.60;99.90
16511;DHT22;8368;48.772;8.754;2024-02-21T12:35:43;11.70;99.90
16511;DHT22;8368;48.772;8.754;2024-02-21T12:38:09;11.70;99.90
16511;DHT22;8368;48.772;8.754;2024-02-21T12:40:34;11.90;99.90
16511;DHT22;8368;48.772;8.754;2024-02-21T12:43:00;11.90;99.90
16511;DHT22;8368;48.772;8.754;2024-02-21T12:45:28;11.80;99.90
16511;DHT22;8368;48.772;8.754;2024-02-21T12:47:54;11.80;99.90
16511;DHT22;8368;48.772;8.754;2024-02-21T12:50:19;11.90;99.90
16511;DHT22;8368;48.772;8.754;2024-02-21T12:52:46;11.90;99.90
16511;DHT22;8368;48.772;8.754;2024-02-21T12:55:11;12.00;99.90
16511;DHT22;8368;48.772;8.754;2024-02-21T12:57:39;12.00;99.90
16511;DHT22;8368;48.772;8.754;2024-02-21T13:00:05;12.10;99.90
16511;DHT22;8368;48.772;8.754;2024-02-21T13:02:34;12.00;99.90
16511;DHT22;8368;48.772;8.754;2024-02-21T13:04:59;12.00;99.90
16511;DHT22;8368;48.772;8.754;2024-02-21T13:07:26;12.00;99.90
16511;DHT22;8368;48.772;8.754;2024-02-21T13:09:51;11.90;99.90
16511;DHT22;8368;48.772;8.754;2024-02-21T13:12:17;11.90;99.90
16511;DHT22;8368;48.772;8.754;2024-02-21T13:14:43;11.90;99.90
16511;DHT22;8368;48.772;8.754;2024-02-21T13:17:09;11.80;99.90
16511;DHT22;8368;48.772;8.754;2024-02-21T13:19:34;11.70;99.90
16511;DHT22;8368;48.772;8.754;2024-02-21T13:22:00;11.60;99.90
16511;DHT22;8368;48.772;8.754;2024-02-21T13:24:27;11.70;99.90
16511;DHT22;8368;48.772;8.754;2024-02-21T13:26:53;11.70;99.90
16511;DHT22;8368;48.772;8.754;2024-02-21T13:29:18;11.70;99.90
16511;DHT22;8368;48.772;8.754;2024-02-21T13:31:44;11.60;99.90
16511;DHT22;8368;48.772;8.754;2024-02-21T13:34:10;11.60;99.90
16511;DHT22;8368;48.772;8.754;2024-02-21T13:36:36;11.60;99.90
16511;DHT22;8368;48.772;8.754;2024-02-21T13:39:01;11.60;99.90
16511;DHT22;8368;48.772;8.754;2024-02-21T13:41:27;11.60;99.90
16511;DHT22;8368;48.772;8.754;2024-02-21T13:43:53;11.40;99.90
16511;DHT22;8368;48.772;8.754;2024-02-21T13:46:18;11.40;99.90
16511;DHT22;8368;48.772;8.754;2024-02-21T13:48:45;11.40;99.90
16511;DHT22;8368;48.772;8.754;2024-02-21T13:51:10;11.50;99.90
16511;DHT22;8368;48.772;8.754;2024-02-21T13:53:37;11.50;99.90
16511;DHT22;8368;48.772;8.754;2024-02-21T13:56:02;11.50;99.90
16511;DHT22;8368;48.772;8.754;2024-02-21T13:58:28;11.60;99.90
16511;DHT22;8368;48.772;8.754;2024-02-21T14:00:53;11.50;99.90
16511;DHT22;8368;48.772;8.754;2024-02-21T14:03:19;11.40;99.90
16511;DHT22;8368;48.772;8.754;2024-02-21T14:05:45;11.30;99.90
16511;DHT22;8368;48.772;8.754;2024-02-21T14:08:13;11.30;99.90
16511;DHT22;8368;48.772;8.754;2024-02-21T14:10:40;11.30;99.90
16511;DHT22;8368;48.772;8.754;2024-02-21T14:13:05;11.30;99.90
16511;DHT22;8368;48.772;8.754;2024-02-21T14:15:31;11.20;99.90
16511;DHT22;8368;48.772;8.754;2024-02-21T14:17:56;11.30;99.90
16511;DHT22;8368;48.772;8.754;2024-02-21T14:20:22;11.30;99.90
16511;DHT22;8368;48.772;8.754;2024-02-21T14:22:47;11.20;99.90
16511;DHT22;8368;48.772;8.754;2024-02-21T14:25:13;11.20;99.90
16511;DHT22;8368;48.772;8.754;2024-02-21T14:27:40;11.20;99.90
16511;DHT22;8368;48.772;8.754;2024-02-21T14:30:06;11.20;99.90
16511;DHT22;8368;48.772;8.754;2024-02-21T14:32:36;11.20;99.90
16511;DHT22;8368;48.772;8.754;2024-02-21T14:35:01;11.20;99.90
16511;DHT22;8368;48.772;8.754;2024-02-21T14:37:27;11.20;99.90
16511;DHT22;8368;48.772;8.754;2024-02-21T14:39:53;11.10;99.90
16511;DHT22;8368;48.772;8.754;2024-02-21T14:42:18;11.10;99.90
16511;DHT22;8368;48.772;8.754;2024-02-21T14:44:44;11.00;99.90
16511;DHT22;8368;48.772;8.754;2024-02-21T14:47:09;10.90;99.90
16511;DHT22;8368;48.772;8.754;2024-02-21T14:49:35;10.90;99.90
16511;DHT22;8368;48.772;8.754;2024-02-21T14:52:01;10.90;99.90
16511;DHT22;8368;48.772;8.754;2024-02-21T14:54:27;10.90;99.90
16511;DHT22;8368;48.772;8.754;2024-02-21T14:56:52;10.90;99.90
16511;DHT22;8368;48.772;8.754;2024-02-21T14:59:19;10.80;99.90
16511;DHT22;8368;48.772;8.754;2024-02-21T15:01:45;10.80;99.90
16511;DHT22;8368;48.772;8.754;2024-02-21T15:04:10;10.80;99.90
16511;DHT22;8368;48.772;8.754;2024-02-21T15:06:36;10.70;99.90
16511;DHT22;8368;48.772;8.754;2024-02-21T15:09:03;10.80;99.90
16511;DHT22;8368;48.772;8.754;2024-02-21T15:11:29;10.70;99.90
16511;DHT22;8368;48.772;8.754;2024-02-21T15:13:55;10.70;99.90
16511;DHT22;8368;48.772;8.754;2024-02-21T15:16:20;10.70;99.90
16511;DHT22;8368;48.772;8.754;2024-02-21T15:18:46;10.60;99.90
16511;DHT22;8368;48.772;8.754;2024-02-21T15:21:11;10.60;99.90
16511;DHT22;8368;48.772;8.754;2024-02-21T15:23:39;10.50;99.90
16511;DHT22;8368;48.772;8.754;2024-02-21T15:26:05;10.40;99.90
16511;DHT22;8368;48.772;8.754;2024-02-21T15:28:31;10.30;99.90
16511;DHT22;8368;48.772;8.754;2024-02-21T15:30:56;10.30;99.90
16511;DHT22;8368;48.772;8.754;2024-02-21T15:33:22;10.20;99.90
16511;DHT22;8368;48.772;8.754;2024-02-21T15:35:48;10.20;99.90
16511;DHT22;8368;48.772;8.754;2024-02-21T15:38:13;10.10;99.90
16511;DHT22;8368;48.772;8.754;2024-02-21T15:40:39;10.10;99.90
16511;DHT22;8368;48.772;8.754;2024-02-21T15:43:04;10.10;99.90
16511;DHT22;8368;48.772;8.754;2024-02-21T15:45:30;10.00;99.90
16511;DHT22;8368;48.772;8.754;2024-02-21T15:47:56;10.00;99.90
16511;DHT22;8368;48.772;8.754;2024-02-21T15:50:21;9.90;99.90